sensor_id;sensor_type;location;lat;lon;timestamp;P1;durP1;ratioP1;P2;durP2;ratioP2
25155;SDS011;71253;51.496;7.606;2023-12-20T00:04:43;121.30;;;50.63;;
25155;SDS011;71253;51.496;7.606;2023-12-20T00:09:45;116.82;;;47.55;;
25155;SDS011;71253;51.496;7.606;2023-12-20T00:14:46;113.70;;;45.00;;
25155;SDS011;71253;51.496;7.606;2023-12-20T00:19:48;102.70;;;42.67;;
25155;SDS011;71253;51.496;7.606;2023-12-20T00:24:49;97.25;;;40.35;;
25155;SDS011;71253;51.496;7.606;2023-12-20T00:29:51;87.15;;;36.42;;
25155;SDS011;71253;51.496;7.606;2023-12-20T00:34:52;97.15;;;38.72;;
25155;SDS011;71253;51.496;7.606;2023-12-20T00:39:54;97.97;;;40.08;;
25155;SDS011;71253;51.496;7.606;2023-12-20T00:44:56;96.70;;;38.63;;
25155;SDS011;71253;51.496;7.606;2023-12-20T00:49:57;118.45;;;43.10;;
25155;SDS011;71253;51.496;7.606;2023-12-20T00:54:59;100.88;;;42.72;;
25155;SDS011;71253;51.496;7.606;2023-12-20T01:00:01;93.82;;;40.80;;
25155;SDS011;71253;51.496;7.606;2023-12-20T01:05:02;82.75;;;36.00;;
25155;SDS011;71253;51.496;7.606;2023-12-20T01:10:04;55.55;;;26.23;;
25155;SDS011;71253;51.496;7.606;2023-12-20T01:15:06;50.42;;;23.38;;
25155;SDS011;71253;51.496;7.606;2023-12-20T01:20:08;40.88;;;20.33;;
25155;SDS011;71253;51.496;7.606;2023-12-20T01:25:10;40.00;;;16.27;;
25155;SDS011;71253;51.496;7.606;2023-12-20T01:30:11;35.88;;;13.50;;
25155;SDS011;71253;51.496;7.606;2023-12-20T01:35:13;34.97;;;12.38;;
25155;SDS011;71253;51.496;7.606;2023-12-20T01:40:15;41.42;;;13.05;;
25155;SDS011;71253;51.496;7.606;2023-12-20T01:45:16;41.88;;;12.63;;
25155;SDS011;71253;51.496;7.606;2023-12-20T01:50:18;43.40;;;12.73;;
25155;SDS011;71253;51.496;7.606;2023-12-20T01:55:20;37.30;;;11.60;;
25155;SDS011;71253;51.496;7.606;2023-12-20T02:00:21;34.58;;;11.30;;
25155;SDS011;71253;51.496;7.606;2023-12-20T02:05:24;31.90;;;11.10;;
25155;SDS011;71253;51.496;7.606;2023-12-20T02:10:26;35.58;;;10.30;;
25155;SDS011;71253;51.496;7.606;2023-12-20T02:15:28;40.58;;;10.57;;
25155;SDS011;71253;51.496;7.606;2023-12-20T02:20:30;27.08;;;9.70;;
25155;SDS011;71253;51.496;7.606;2023-12-20T02:25:31;37.22;;;10.48;;
25155;SDS011;71253;51.496;7.606;2023-12-20T02:30:33;42.25;;;10.23;;
25155;SDS011;71253;51.496;7.606;2023-12-20T02:35:34;37.70;;;9.48;;
25155;SDS011;71253;51.496;7.606;2023-12-20T02:40:36;45.17;;;10.10;;
25155;SDS011;71253;51.496;7.606;2023-12-20T02:45:37;36.50;;;10.73;;
25155;SDS011;71253;51.496;7.606;2023-12-20T02:50:39;32.25;;;10.57;;
25155;SDS011;71253;51.496;7.606;2023-12-20T02:55:40;38.17;;;10.18;;
25155;SDS011;71253;51.496;7.606;2023-12-20T03:00:42;45.50;;;10.32;;
25155;SDS011;71253;51.496;7.606;2023-12-20T03:05:44;35.08;;;9.68;;
25155;SDS011;71253;51.496;7.606;2023-12-20T03:10:46;35.60;;;9.98;;
25155;SDS011;71253;51.496;7.606;2023-12-20T03:15:48;41.10;;;10.43;;
25155;SDS011;71253;51.496;7.606;2023-12-20T03:20:50;29.80;;;10.07;;
25155;SDS011;71253;51.496;7.606;2023-12-20T03:25:51;30.45;;;9.90;;
25155;SDS011;71253;51.496;7.606;2023-12-20T03:30:53;44.42;;;9.80;;
25155;SDS011;71253;51.496;7.606;2023-12-20T03:35:54;38.58;;;11.20;;
25155;SDS011;71253;51.496;7.606;2023-12-20T03:40:56;44.78;;;12.25;;
25155;SDS011;71253;51.496;7.606;2023-12-20T03:45:57;41.22;;;11.63;;
25155;SDS011;71253;51.496;7.606;2023-12-20T03:50:59;41.67;;;10.95;;
25155;SDS011;71253;51.496;7.606;2023-12-20T03:56:01;40.45;;;9.52;;
25155;SDS011;71253;51.496;7.606;2023-12-20T04:01:02;37.88;;;9.88;;
25155;SDS011;71253;51.496;7.606;2023-12-20T04:06:04;44.40;;;11.35;;
25155;SDS011;71253;51.496;7.606;2023-12-20T04:11:05;46.60;;;13.50;;
25155;SDS011;71253;51.496;7.606;2023-12-20T04:16:07;51.10;;;14.13;;
25155;SDS011;71253;51.496;7.606;2023-12-20T04:21:09;63.13;;;15.13;;
25155;SDS011;71253;51.496;7.606;2023-12-20T04:26:10;57.42;;;15.82;;
25155;SDS011;71253;51.496;7.606;2023-12-20T04:31:12;52.53;;;14.57;;
25155;SDS011;71253;51.496;7.606;2023-12-20T04:36:13;51.30;;;14.48;;
25155;SDS011;71253;51.496;7.606;2023-12-20T04:41:15;44.95;;;11.80;;
25155;SDS011;71253;51.496;7.606;2023-12-20T04:46:17;47.42;;;12.88;;
25155;SDS011;71253;51.496;7.606;2023-12-20T04:51:18;58.85;;;13.07;;
25155;SDS011;71253;51.496;7.606;2023-12-20T04:56:20;59.33;;;13.50;;
25155;SDS011;71253;51.496;7.606;2023-12-20T05:01:21;51.35;;;13.68;;
25155;SDS011;71253;51.496;7.606;2023-12-20T05:06:23;43.88;;;14.35;;
25155;SDS011;71253;51.496;7.606;2023-12-20T05:11:24;58.53;;;15.35;;
25155;SDS011;71253;51.496;7.606;2023-12-20T05:16:26;55.50;;;15.25;;
25155;SDS011;71253;51.496;7.606;2023-12-20T05:21:28;60.08;;;16.27;;
25155;SDS011;71253;51.496;7.606;2023-12-20T05:26:29;55.50;;;16.70;;
25155;SDS011;71253;51.496;7.606;2023-12-20T05:31:31;52.17;;;15.85;;
25155;SDS011;71253;51.496;7.606;2023-12-20T05:36:33;52.17;;;15.18;;
25155;SDS011;71253;51.496;7.606;2023-12-20T05:41:34;55.97;;;13.63;;
25155;SDS011;71253;51.496;7.606;2023-12-20T05:46:36;55.83;;;13.75;;
25155;SDS011;71253;51.496;7.606;2023-12-20T05:51:37;60.00;;;15.20;;
25155;SDS011;71253;51.496;7.606;2023-12-20T05:56:39;49.53;;;15.18;;
25155;SDS011;71253;51.496;7.606;2023-12-20T06:01:40;64.57;;;17.58;;
25155;SDS011;71253;51.496;7.606;2023-12-20T06:06:42;57.45;;;16.00;;
25155;SDS011;71253;51.496;7.606;2023-12-20T06:11:44;60.33;;;16.40;;
25155;SDS011;71253;51.496;7.606;2023-12-20T06:16:46;61.22;;;16.25;;
25155;SDS011;71253;51.496;7.606;2023-12-20T06:21:47;69.07;;;15.55;;
25155;SDS011;71253;51.496;7.606;2023-12-20T06:26:49;49.47;;;14.00;;
25155;SDS011;71253;51.496;7.606;2023-12-20T06:31:51;68.10;;;14.80;;
25155;SDS011;71253;51.496;7.606;2023-12-20T06:36:52;53.17;;;15.52;;
25155;SDS011;71253;51.496;7.606;2023-12-20T06:41:54;74.13;;;16.58;;
25155;SDS011;71253;51.496;7.606;2023-12-20T06:46:55;50.30;;;16.85;;
25155;SDS011;71253;51.496;7.606;2023-12-20T06:51:57;55.53;;;17.10;;
25155;SDS011;71253;51.496;7.606;2023-12-20T06:56:58;64.88;;;17.23;;
25155;SDS011;71253;51.496;7.606;2023-12-20T07:02:00;60.33;;;15.60;;
25155;SDS011;71253;51.496;7.606;2023-12-20T07:07:02;57.80;;;15.02;;
25155;SDS011;71253;51.496;7.606;2023-12-20T07:12:04;57.42;;;14.68;;
25155;SDS011;71253;51.496;7.606;2023-12-20T07:17:05;52.58;;;13.95;;
25155;SDS011;71253;51.496;7.606;2023-12-20T07:22:07;57.38;;;13.95;;
25155;SDS011;71253;51.496;7.606;2023-12-20T07:27:09;45.45;;;12.95;;
25155;SDS011;71253;51.496;7.606;2023-12-20T07:32:10;51.53;;;13.77;;
25155;SDS011;71253;51.496;7.606;2023-12-20T07:37:12;50.25;;;12.80;;
25155;SDS011;71253;51.496;7.606;2023-12-20T07:42:14;50.45;;;11.93;;
25155;SDS011;71253;51.496;7.606;2023-12-20T07:47:15;55.58;;;10.30;;
25155;SDS011;71253;51.496;7.606;2023-12-20T07:52:17;48.67;;;10.98;;
25155;SDS011;71253;51.496;7.606;2023-12-20T07:57:19;44.13;;;9.98;;
25155;SDS011;71253;51.496;7.606;2023-12-20T08:02:21;42.97;;;9.80;;
25155;SDS011;71253;51.496;7.606;2023-12-20T08:07:22;44.80;;;10.10;;
25155;SDS011;71253;51.496;7.606;2023-12-20T08:12:24;39.45;;;10.32;;
25155;SDS011;71253;51.496;7.606;2023-12-20T08:17:25;45.25;;;10.23;;
25155;SDS011;71253;51.496;7.606;2023-12-20T08:22:27;52.60;;;10.13;;
25155;SDS011;71253;51.496;7.606;2023-12-20T08:27:28;50.33;;;10.85;;
25155;SDS011;71253;51.496;7.606;2023-12-20T08:32:30;49.92;;;10.93;;
25155;SDS011;71253;51.496;7.606;2023-12-20T08:37:31;49.22;;;11.10;;
25155;SDS011;71253;51.496;7.606;2023-12-20T08:42:33;43.45;;;10.40;;
25155;SDS011;71253;51.496;7.606;2023-12-20T08:47:35;49.58;;;10.90;;
25155;SDS011;71253;51.496;7.606;2023-12-20T08:52:36;40.05;;;10.65;;
25155;SDS011;71253;51.496;7.606;2023-12-20T08:57:38;45.10;;;10.15;;
25155;SDS011;71253;51.496;7.606;2023-12-20T09:02:39;37.83;;;10.38;;
25155;SDS011;71253;51.496;7.606;2023-12-20T09:07:41;48.33;;;10.80;;
25155;SDS011;71253;51.496;7.606;2023-12-20T09:12:43;41.95;;;10.07;;
25155;SDS011;71253;51.496;7.606;2023-12-20T09:17:44;44.85;;;9.32;;
25155;SDS011;71253;51.496;7.606;2023-12-20T09:22:46;43.80;;;10.50;;
25155;SDS011;71253;51.496;7.606;2023-12-20T09:27:47;51.33;;;10.57;;
25155;SDS011;71253;51.496;7.606;2023-12-20T09:32:49;41.22;;;9.43;;
25155;SDS011;71253;51.496;7.606;2023-12-20T09:37:51;40.97;;;8.95;;
25155;SDS011;71253;51.496;7.606;2023-12-20T09:42:56;38.03;;;8.70;;
25155;SDS011;71253;51.496;7.606;2023-12-20T09:47:58;45.10;;;8.82;;
25155;SDS011;71253;51.496;7.606;2023-12-20T09:53:00;42.42;;;8.05;;
25155;SDS011;71253;51.496;7.606;2023-12-20T09:58:03;44.65;;;8.88;;
25155;SDS011;71253;51.496;7.606;2023-12-20T10:03:05;41.75;;;8.32;;
25155;SDS011;71253;51.496;7.606;2023-12-20T10:08:07;42.00;;;7.93;;
25155;SDS011;71253;51.496;7.606;2023-12-20T10:13:10;37.15;;;7.78;;
25155;SDS011;71253;51.496;7.606;2023-12-20T10:18:12;42.65;;;7.57;;
25155;SDS011;71253;51.496;7.606;2023-12-20T10:23:15;37.50;;;7.05;;
25155;SDS011;71253;51.496;7.606;2023-12-20T10:28:17;37.50;;;6.60;;
25155;SDS011;71253;51.496;7.606;2023-12-20T10:33:28;36.67;;;7.50;;
25155;SDS011;71253;51.496;7.606;2023-12-20T10:38:30;39.92;;;7.18;;
25155;SDS011;71253;51.496;7.606;2023-12-20T10:43:32;33.05;;;7.30;;
25155;SDS011;71253;51.496;7.606;2023-12-20T10:48:34;45.17;;;8.55;;
25155;SDS011;71253;51.496;7.606;2023-12-20T10:53:37;40.35;;;8.45;;
25155;SDS011;71253;51.496;7.606;2023-12-20T10:58:40;52.72;;;8.90;;
25155;SDS011;71253;51.496;7.606;2023-12-20T11:03:44;38.75;;;9.93;;
25155;SDS011;71253;51.496;7.606;2023-12-20T11:14:19;45.72;;;9.40;;
25155;SDS011;71253;51.496;7.606;2023-12-20T11:19:25;39.92;;;9.05;;
25155;SDS011;71253;51.496;7.606;2023-12-20T11:24:26;46.00;;;9.93;;
25155;SDS011;71253;51.496;7.606;2023-12-20T11:29:34;43.10;;;8.90;;
25155;SDS011;71253;51.496;7.606;2023-12-20T11:34:37;39.80;;;8.82;;
25155;SDS011;71253;51.496;7.606;2023-12-20T11:39:38;42.88;;;9.23;;
25155;SDS011;71253;51.496;7.606;2023-12-20T11:44:40;37.20;;;9.30;;
25155;SDS011;71253;51.496;7.606;2023-12-20T11:49:43;40.70;;;9.27;;
25155;SDS011;71253;51.496;7.606;2023-12-20T11:54:45;36.50;;;9.20;;
25155;SDS011;71253;51.496;7.606;2023-12-20T11:59:46;41.22;;;9.27;;
25155;SDS011;71253;51.496;7.606;2023-12-20T12:04:48;37.38;;;9.20;;
25155;SDS011;71253;51.496;7.606;2023-12-20T12:09:51;41.90;;;10.38;;
25155;SDS011;71253;51.496;7.606;2023-12-20T12:14:53;44.75;;;11.60;;
25155;SDS011;71253;51.496;7.606;2023-12-20T12:20:02;48.10;;;12.80;;
25155;SDS011;71253;51.496;7.606;2023-12-20T12:25:11;44.05;;;10.38;;
25155;SDS011;71253;51.496;7.606;2023-12-20T12:35:17;44.33;;;12.63;;
25155;SDS011;71253;51.496;7.606;2023-12-20T12:40:19;35.67;;;13.55;;
25155;SDS011;71253;51.496;7.606;2023-12-20T12:45:21;31.67;;;10.80;;
25155;SDS011;71253;51.496;7.606;2023-12-20T12:50:23;40.63;;;13.07;;
25155;SDS011;71253;51.496;7.606;2023-12-20T12:55:24;48.08;;;14.75;;
25155;SDS011;71253;51.496;7.606;2023-12-20T13:00:26;46.72;;;13.70;;
25155;SDS011;71253;51.496;7.606;2023-12-20T13:05:27;41.00;;;13.73;;
25155;SDS011;71253;51.496;7.606;2023-12-20T13:10:30;35.00;;;11.98;;
25155;SDS011;71253;51.496;7.606;2023-12-20T13:15:31;48.92;;;13.00;;
25155;SDS011;71253;51.496;7.606;2023-12-20T13:20:33;50.22;;;14.10;;
25155;SDS011;71253;51.496;7.606;2023-12-20T13:25:34;42.45;;;12.07;;
25155;SDS011;71253;51.496;7.606;2023-12-20T13:30:36;42.97;;;11.50;;
25155;SDS011;71253;51.496;7.606;2023-12-20T13:35:38;38.53;;;11.00;;
25155;SDS011;71253;51.496;7.606;2023-12-20T13:40:39;38.30;;;11.35;;
25155;SDS011;71253;51.496;7.606;2023-12-20T13:45:41;41.55;;;12.02;;
25155;SDS011;71253;51.496;7.606;2023-12-20T13:50:42;41.03;;;11.85;;
25155;SDS011;71253;51.496;7.606;2023-12-20T13:55:44;38.25;;;11.57;;
25155;SDS011;71253;51.496;7.606;2023-12-20T14:00:46;47.78;;;11.48;;
25155;SDS011;71253;51.496;7.606;2023-12-20T14:05:47;45.70;;;12.18;;
25155;SDS011;71253;51.496;7.606;2023-12-20T14:10:49;34.47;;;9.85;;
25155;SDS011;71253;51.496;7.606;2023-12-20T14:15:50;40.03;;;8.90;;
25155;SDS011;71253;51.496;7.606;2023-12-20T14:20:52;27.45;;;7.75;;
25155;SDS011;71253;51.496;7.606;2023-12-20T14:25:54;28.85;;;8.18;;
25155;SDS011;71253;51.496;7.606;2023-12-20T14:30:56;27.35;;;8.57;;
25155;SDS011;71253;51.496;7.606;2023-12-20T14:35:57;32.47;;;10.10;;
25155;SDS011;71253;51.496;7.606;2023-12-20T14:40:59;27.95;;;10.63;;
25155;SDS011;71253;51.496;7.606;2023-12-20T14:46:01;25.23;;;9.48;;
25155;SDS011;71253;51.496;7.606;2023-12-20T14:51:02;25.45;;;9.10;;
25155;SDS011;71253;51.496;7.606;2023-12-20T14:56:05;27.73;;;9.60;;
25155;SDS011;71253;51.496;7.606;2023-12-20T15:01:06;28.52;;;9.07;;
25155;SDS011;71253;51.496;7.606;2023-12-20T15:06:08;24.75;;;8.23;;
25155;SDS011;71253;51.496;7.606;2023-12-20T15:11:10;34.17;;;8.77;;
25155;SDS011;71253;51.496;7.606;2023-12-20T15:16:12;26.73;;;10.20;;
25155;SDS011;71253;51.496;7.606;2023-12-20T15:21:14;41.15;;;12.93;;
25155;SDS011;71253;51.496;7.606;2023-12-20T15:26:16;38.90;;;14.75;;
25155;SDS011;71253;51.496;7.606;2023-12-20T15:31:18;42.10;;;14.52;;
25155;SDS011;71253;51.496;7.606;2023-12-20T15:36:19;40.58;;;14.75;;
25155;SDS011;71253;51.496;7.606;2023-12-20T15:41:21;38.05;;;14.25;;
25155;SDS011;71253;51.496;7.606;2023-12-20T15:46:23;43.13;;;16.40;;
25155;SDS011;71253;51.496;7.606;2023-12-20T15:51:25;44.40;;;17.00;;
25155;SDS011;71253;51.496;7.606;2023-12-20T15:56:27;40.78;;;16.30;;
25155;SDS011;71253;51.496;7.606;2023-12-20T16:01:31;43.97;;;16.60;;
25155;SDS011;71253;51.496;7.606;2023-12-20T16:06:33;49.35;;;17.15;;
25155;SDS011;71253;51.496;7.606;2023-12-20T16:11:34;48.92;;;16.65;;
25155;SDS011;71253;51.496;7.606;2023-12-20T16:16:36;44.97;;;16.55;;
25155;SDS011;71253;51.496;7.606;2023-12-20T16:21:37;48.30;;;16.98;;
25155;SDS011;71253;51.496;7.606;2023-12-20T16:26:39;48.60;;;16.58;;
25155;SDS011;71253;51.496;7.606;2023-12-20T16:31:40;46.08;;;15.68;;
25155;SDS011;71253;51.496;7.606;2023-12-20T16:36:49;49.95;;;15.10;;
25155;SDS011;71253;51.496;7.606;2023-12-20T16:41:52;42.20;;;15.10;;
25155;SDS011;71253;51.496;7.606;2023-12-20T16:47:03;36.25;;;14.70;;
25155;SDS011;71253;51.496;7.606;2023-12-20T16:52:05;56.10;;;16.45;;
25155;SDS011;71253;51.496;7.606;2023-12-20T16:57:07;42.67;;;15.50;;
25155;SDS011;71253;51.496;7.606;2023-12-20T17:02:08;41.80;;;15.02;;
25155;SDS011;71253;51.496;7.606;2023-12-20T17:07:10;43.95;;;14.73;;
25155;SDS011;71253;51.496;7.606;2023-12-20T17:12:11;43.58;;;16.45;;
25155;SDS011;71253;51.496;7.606;2023-12-20T17:17:13;44.28;;;16.42;;
25155;SDS011;71253;51.496;7.606;2023-12-20T17:22:14;44.38;;;18.05;;
25155;SDS011;71253;51.496;7.606;2023-12-20T17:27:16;45.25;;;17.63;;
25155;SDS011;71253;51.496;7.606;2023-12-20T17:32:18;53.35;;;17.90;;
25155;SDS011;71253;51.496;7.606;2023-12-20T17:37:19;52.75;;;18.02;;
25155;SDS011;71253;51.496;7.606;2023-12-20T17:42:21;49.20;;;16.05;;
25155;SDS011;71253;51.496;7.606;2023-12-20T17:47:22;52.13;;;17.65;;
25155;SDS011;71253;51.496;7.606;2023-12-20T17:52:24;45.20;;;17.52;;
25155;SDS011;71253;51.496;7.606;2023-12-20T17:57:26;46.03;;;16.40;;
25155;SDS011;71253;51.496;7.606;2023-12-20T18:02:27;49.28;;;15.98;;
25155;SDS011;71253;51.496;7.606;2023-12-20T18:07:29;45.45;;;16.55;;
25155;SDS011;71253;51.496;7.606;2023-12-20T18:12:31;41.03;;;15.07;;
25155;SDS011;71253;51.496;7.606;2023-12-20T18:17:32;39.58;;;15.43;;
25155;SDS011;71253;51.496;7.606;2023-12-20T18:22:34;48.65;;;14.68;;
25155;SDS011;71253;51.496;7.606;2023-12-20T18:27:35;43.90;;;14.75;;
25155;SDS011;71253;51.496;7.606;2023-12-20T18:32:37;35.38;;;14.30;;
25155;SDS011;71253;51.496;7.606;2023-12-20T18:37:39;45.33;;;13.98;;
25155;SDS011;71253;51.496;7.606;2023-12-20T18:42:40;48.03;;;14.40;;
25155;SDS011;71253;51.496;7.606;2023-12-20T18:47:42;31.00;;;13.07;;
25155;SDS011;71253;51.496;7.606;2023-12-20T18:52:44;47.47;;;14.60;;
25155;SDS011;71253;51.496;7.606;2023-12-20T18:57:45;43.53;;;14.02;;
25155;SDS011;71253;51.496;7.606;2023-12-20T19:02:47;36.97;;;14.10;;
25155;SDS011;71253;51.496;7.606;2023-12-20T19:07:48;39.45;;;14.80;;
25155;SDS011;71253;51.496;7.606;2023-12-20T19:12:50;36.45;;;14.73;;
25155;SDS011;71253;51.496;7.606;2023-12-20T19:17:51;43.65;;;15.98;;
25155;SDS011;71253;51.496;7.606;2023-12-20T19:22:53;38.83;;;17.00;;
25155;SDS011;71253;51.496;7.606;2023-12-20T19:27:54;44.55;;;16.58;;
25155;SDS011;71253;51.496;7.606;2023-12-20T19:32:56;47.60;;;16.23;;
25155;SDS011;71253;51.496;7.606;2023-12-20T19:37:58;39.53;;;16.52;;
25155;SDS011;71253;51.496;7.606;2023-12-20T19:42:59;41.53;;;16.80;;
25155;SDS011;71253;51.496;7.606;2023-12-20T19:48:01;44.58;;;18.08;;
25155;SDS011;71253;51.496;7.606;2023-12-20T19:53:02;42.40;;;17.33;;
25155;SDS011;71253;51.496;7.606;2023-12-20T19:58:04;39.05;;;16.40;;
25155;SDS011;71253;51.496;7.606;2023-12-20T20:03:05;51.85;;;16.55;;
25155;SDS011;71253;51.496;7.606;2023-12-20T20:08:07;46.28;;;17.75;;
25155;SDS011;71253;51.496;7.606;2023-12-20T20:13:09;44.80;;;18.50;;
25155;SDS011;71253;51.496;7.606;2023-12-20T20:18:10;43.95;;;19.50;;
25155;SDS011;71253;51.496;7.606;2023-12-20T20:23:12;41.75;;;18.60;;
25155;SDS011;71253;51.496;7.606;2023-12-20T20:28:13;49.13;;;19.13;;
25155;SDS011;71253;51.496;7.606;2023-12-20T20:33:15;45.83;;;18.85;;
25155;SDS011;71253;51.496;7.606;2023-12-20T20:38:16;40.33;;;17.52;;
25155;SDS011;71253;51.496;7.606;2023-12-20T20:43:18;38.67;;;16.17;;
25155;SDS011;71253;51.496;7.606;2023-12-20T20:48:20;35.70;;;14.63;;
25155;SDS011;71253;51.496;7.606;2023-12-20T20:53:24;35.70;;;13.77;;
25155;SDS011;71253;51.496;7.606;2023-12-20T20:58:26;29.52;;;13.82;;
25155;SDS011;71253;51.496;7.606;2023-12-20T21:03:27;27.60;;;13.38;;
25155;SDS011;71253;51.496;7.606;2023-12-20T21:08:29;27.45;;;13.02;;
25155;SDS011;71253;51.496;7.606;2023-12-20T21:13:31;27.10;;;12.68;;
25155;SDS011;71253;51.496;7.606;2023-12-20T21:18:33;28.35;;;13.52;;
25155;SDS011;71253;51.496;7.606;2023-12-20T21:23:35;23.23;;;11.95;;
25155;SDS011;71253;51.496;7.606;2023-12-20T21:28:36;20.80;;;11.55;;
25155;SDS011;71253;51.496;7.606;2023-12-20T21:33:39;23.88;;;10.02;;
25155;SDS011;71253;51.496;7.606;2023-12-20T21:38:40;15.30;;;8.55;;
25155;SDS011;71253;51.496;7.606;2023-12-20T21:43:42;16.50;;;7.50;;
25155;SDS011;71253;51.496;7.606;2023-12-20T21:48:43;13.57;;;6.15;;
25155;SDS011;71253;51.496;7.606;2023-12-20T21:53:47;12.15;;;5.47;;
25155;SDS011;71253;51.496;7.606;2023-12-20T21:58:49;6.78;;;4.45;;
25155;SDS011;71253;51.496;7.606;2023-12-20T22:03:50;9.43;;;4.90;;
25155;SDS011;71253;51.496;7.606;2023-12-20T22:08:52;7.82;;;4.15;;
25155;SDS011;71253;51.496;7.606;2023-12-20T22:13:53;8.07;;;4.13;;
25155;SDS011;71253;51.496;7.606;2023-12-20T22:18:59;10.65;;;4.63;;
25155;SDS011;71253;51.496;7.606;2023-12-20T22:24:01;8.43;;;4.43;;
25155;SDS011;71253;51.496;7.606;2023-12-20T22:29:03;7.63;;;4.57;;
25155;SDS011;71253;51.496;7.606;2023-12-20T22:34:04;10.65;;;5.28;;
25155;SDS011;71253;51.496;7.606;2023-12-20T22:39:06;12.10;;;6.07;;
25155;SDS011;71253;51.496;7.606;2023-12-20T22:44:08;14.15;;;8.38;;
25155;SDS011;71253;51.496;7.606;2023-12-20T22:49:09;13.40;;;8.25;;
25155;SDS011;71253;51.496;7.606;2023-12-20T22:54:11;20.67;;;10.00;;
25155;SDS011;71253;51.496;7.606;2023-12-20T22:59:12;18.73;;;11.05;;
25155;SDS011;71253;51.496;7.606;2023-12-20T23:04:14;19.92;;;10.75;;
25155;SDS011;71253;51.496;7.606;2023-12-20T23:09:15;19.75;;;11.45;;
25155;SDS011;71253;51.496;7.606;2023-12-20T23:14:17;21.25;;;11.13;;
25155;SDS011;71253;51.496;7.606;2023-12-20T23:19:18;16.73;;;10.00;;
25155;SDS011;71253;51.496;7.606;2023-12-20T23:24:20;18.33;;;10.65;;
25155;SDS011;71253;51.496;7.606;2023-12-20T23:29:22;17.52;;;9.90;;
25155;SDS011;71253;51.496;7.606;2023-12-20T23:34:24;17.38;;;10.35;;
25155;SDS011;71253;51.496;7.606;2023-12-20T23:39:25;16.20;;;10.00;;
25155;SDS011;71253;51.496;7.606;2023-12-20T23:44:27;14.07;;;9.90;;
25155;SDS011;71253;51.496;7.606;2023-12-20T23:49:28;15.13;;;8.98;;
25155;SDS011;71253;51.496;7.606;2023-12-20T23:54:30;13.70;;;7.47;;
25155;SDS011;71253;51.496;7.606;2023-12-20T23:59:31;11.88;;;7.45;;
